Nestor — V2FB3 — position and weather

sailwx.info

Track history (hours):
 
Tides and Currents Weather Stations Pressure Air Temp Water Temp Dewpoint Dewpoint Depression Visibility Wind Speed Wind Dir Waves Ship Positions

Nestor

Last reported at 2015-Apr-01 03:12 UTC. Time now 2015-Apr-01 04:34 UTC.
Position N 50°35' E 000°16'.

Length 88 m; draft 3.6 m.

Type: Cargo ship. MMSI: 305620000.

Date/timePositionNaut miles runAvg speedWind from/ knotsBaromVisibWave heightAir tempDewpointWater temp
2015-Apr-01 03:12N 50°35' E 000°16'5 7.6
2015-Apr-01 02:33N 50°37' E 000°23'8 7.7
2015-Apr-01 01:33N 50°39' E 000°35'8 7.8
2015-Apr-01 00:34N 50°44' E 000°45'22 7.3
2015-Mar-31 21:30N 50°57' E 001°13'6 6.2
2015-Mar-31 20:32N 51°01' E 001°20'7 7.0
2015-Mar-31 19:33N 51°05' E 001°29'9 8.9
2015-Mar-31 18:33N 51°11' E 001°40'10 9.6
2015-Mar-31 17:33N 51°18' E 001°50'9 8.9
2015-Mar-31 16:34N 51°25' E 001°58'8 7.9
2015-Mar-31 15:32N 51°32' E 002°06'6 6.3
2015-Mar-31 14:34N 51°37' E 002°12'5 5.0
2015-Mar-31 13:33N 51°41' E 002°17'57 3.3
2015-Mar-30 20:33N 52°04' E 003°41'7 6.8
2015-Mar-30 19:33N 52°03' E 003°52'8 7.6
2015-Mar-30 18:33N 51°59' E 004°03'1110.8
2015-Mar-30 17:33N 51°54' E 004°18'2 1.9
2015-Mar-30 16:25N 51°54' E 004°21'0 0.0
2015-Mar-30 15:22N 51°54' E 004°21'0 0.0
2015-Mar-30 14:16N 51°54' E 004°21'0 0.0
2015-Mar-30 13:28N 51°54' E 004°21'0 0.0
2015-Mar-30 12:25N 51°54' E 004°21'0 0.0
2015-Mar-30 11:31N 51°54' E 004°21'0 0.0
2015-Mar-30 10:25N 51°54' E 004°21'0 0.0
2015-Mar-30 09:31N 51°54' E 004°21'0 0.0
2015-Mar-30 08:31N 51°54' E 004°21'0 0.0
2015-Mar-30 07:31N 51°54' E 004°21'0 0.0
2015-Mar-30 06:16N 51°54' E 004°21'0 0.0
2015-Mar-30 05:25N 51°54' E 004°21'0 0.0
2015-Mar-30 04:07N 51°54' E 004°21'0 0.0
2015-Mar-30 03:19N 51°54' E 004°21'0 0.0
2015-Mar-30 02:31N 51°54' E 004°21'0 0.0
2015-Mar-30 01:28N 51°54' E 004°21'0 0.0
2015-Mar-30 00:28N 51°54' E 004°21'0 0.0
2015-Mar-29 23:31N 51°54' E 004°21'0 0.0
2015-Mar-29 22:31N 51°54' E 004°21'0 0.0
2015-Mar-29 21:25N 51°54' E 004°21'0 0.0
2015-Mar-29 20:31N 51°54' E 004°21'0 0.0
2015-Mar-29 19:31N 51°54' E 004°21'0 0.0
2015-Mar-29 18:16N 51°54' E 004°21'0 0.0
2015-Mar-29 17:19N 51°54' E 004°21'0 0.1
2015-Mar-29 16:32N 51°54' E 004°21'1 1.0
2015-Mar-29 15:33N 51°54' E 004°23'3 3.2
2015-Mar-29 14:31N 51°54' E 004°28'0 0.0
2015-Mar-29 13:31N 51°54' E 004°28'0 0.0
2015-Mar-29 12:31N 51°54' E 004°28'0 0.0
2015-Mar-29 11:31N 51°54' E 004°28'0 0.0
2015-Mar-29 10:31N 51°54' E 004°28'0 0.0
2015-Mar-29 09:31N 51°54' E 004°28'0 0.0
2015-Mar-29 08:31N 51°54' E 004°28'0 0.0
2015-Mar-29 07:31N 51°54' E 004°28'0 0.0
2015-Mar-29 06:31N 51°54' E 004°28'0 0.0
2015-Mar-29 05:31N 51°54' E 004°28'0 0.0
2015-Mar-29 04:31N 51°54' E 004°28'0 0.0
2015-Mar-29 03:31N 51°54' E 004°28'0 0.0
2015-Mar-29 02:31N 51°54' E 004°28'0 0.0
2015-Mar-29 01:31N 51°54' E 004°28'0 0.0
2015-Mar-29 00:31N 51°54' E 004°28'0 0.0
2015-Mar-28 23:31N 51°54' E 004°28'0 0.0
2015-Mar-28 22:31N 51°54' E 004°28'0 0.0
2015-Mar-28 21:31N 51°54' E 004°28'0 0.0
2015-Mar-28 20:31N 51°54' E 004°28'0 0.0
2015-Mar-28 19:31N 51°54' E 004°28'0 0.0
2015-Mar-28 18:31N 51°54' E 004°28'0 0.0
2015-Mar-28 17:31N 51°54' E 004°28'0 0.0
2015-Mar-28 16:31N 51°54' E 004°28'0 0.0
2015-Mar-28 15:31N 51°54' E 004°28'0 0.0
2015-Mar-28 14:31N 51°54' E 004°28'0 0.0
2015-Mar-28 13:31N 51°54' E 004°28'0 0.0
2015-Mar-28 12:31N 51°54' E 004°28'0 0.0
2015-Mar-28 11:31N 51°54' E 004°28'0 0.0
2015-Mar-28 10:31N 51°54' E 004°28'0 0.0
2015-Mar-28 09:31N 51°54' E 004°28'0 0.0
2015-Mar-28 08:31N 51°54' E 004°28'0 0.0
2015-Mar-28 07:31N 51°54' E 004°28'0 0.0
2015-Mar-28 06:31N 51°54' E 004°28'0 0.0
2015-Mar-28 05:31N 51°54' E 004°28'0 0.0
2015-Mar-28 04:28N 51°54' E 004°28'0 0.0
2015-Mar-28 03:31N 51°54' E 004°28'0 0.0
2015-Mar-28 02:31N 51°54' E 004°28'0 0.0
2015-Mar-28 01:31N 51°54' E 004°28'0 0.0
2015-Mar-28 00:31N 51°54' E 004°28'0 0.0
2015-Mar-27 23:31N 51°54' E 004°28'0 0.0
2015-Mar-27 22:31N 51°54' E 004°28'0 0.0
2015-Mar-27 21:31N 51°54' E 004°28'0 0.0
2015-Mar-27 20:31N 51°54' E 004°28'0 0.0
2015-Mar-27 19:31N 51°54' E 004°28'0 0.0
2015-Mar-27 18:31N 51°54' E 004°28'0 0.0
2015-Mar-27 17:31N 51°54' E 004°28'0 0.0
2015-Mar-27 16:31N 51°54' E 004°28'0 0.0
2015-Mar-27 15:31N 51°54' E 004°28'0 0.0
2015-Mar-27 14:31N 51°54' E 004°28'0 0.0
2015-Mar-27 13:31N 51°54' E 004°28'0 0.0
2015-Mar-27 12:31N 51°54' E 004°28'0 0.0
2015-Mar-27 11:31N 51°54' E 004°28'0 0.0
2015-Mar-27 10:28N 51°54' E 004°28'0 0.0
2015-Mar-27 09:31N 51°54' E 004°28'0 0.0
2015-Mar-27 08:31N 51°54' E 004°28'0 0.0
2015-Mar-27 07:31N 51°54' E 004°28'0 0.0
2015-Mar-27 06:31N 51°54' E 004°28'0 0.0
2015-Mar-27 05:28N 51°54' E 004°28'0 0.0
2015-Mar-27 04:31N 51°54' E 004°28'0 0.0
2015-Mar-27 03:31N 51°54' E 004°28'0 0.0
2015-Mar-27 02:31N 51°54' E 004°28'0 0.0
2015-Mar-27 01:31N 51°54' E 004°28'0 0.0
2015-Mar-27 00:28N 51°54' E 004°28'0 0.0
2015-Mar-26 23:31N 51°54' E 004°28'0 0.0
2015-Mar-26 22:31N 51°54' E 004°28'0 0.0
2015-Mar-26 21:31N 51°54' E 004°28'0 0.0
2015-Mar-26 20:31N 51°54' E 004°28'0 0.0
2015-Mar-26 19:31N 51°54' E 004°28'0 0.0
2015-Mar-26 18:31N 51°54' E 004°28'0 0.0
2015-Mar-26 17:31N 51°54' E 004°28'0 0.0
2015-Mar-26 16:31N 51°54' E 004°28'0 0.0
2015-Mar-26 15:28N 51°54' E 004°28'0 0.1
2015-Mar-26 14:33N 51°54' E 004°28'7 7.1
2015-Mar-26 13:33N 51°53' E 004°17'0 0.4
2015-Mar-26 12:23N 51°53' E 004°16'0 0.0
2015-Mar-26 11:20N 51°53' E 004°16'0 0.0
2015-Mar-26 10:05N 51°53' E 004°16'0 0.0
2015-Mar-26 09:26N 51°53' E 004°16'0 0.0
2015-Mar-26 08:08N 51°53' E 004°16'0 0.0
2015-Mar-26 07:32N 51°53' E 004°16'0 0.0
2015-Mar-26 06:32N 51°53' E 004°16'0 0.0
2015-Mar-26 05:20N 51°53' E 004°16'0 0.0
2015-Mar-26 04:29N 51°53' E 004°16'0 0.0
2015-Mar-26 03:29N 51°53' E 004°16'0 0.0
2015-Mar-26 02:23N 51°53' E 004°16'0 0.0
2015-Mar-26 01:32N 51°53' E 004°16'0 0.0
2015-Mar-26 00:26N 51°53' E 004°16'0 0.0
2015-Mar-25 22:32N 51°53' E 004°16'0 0.0
2015-Mar-25 21:26N 51°53' E 004°16'0 0.0
2015-Mar-25 20:20N 51°53' E 004°16'0 0.0
2015-Mar-25 19:32N 51°53' E 004°16'0 0.0
2015-Mar-25 18:32N 51°53' E 004°16'0 0.0
2015-Mar-25 17:23N 51°53' E 004°16'0 0.0
2015-Mar-25 15:29N 51°53' E 004°16'0 0.0
2015-Mar-25 14:08N 51°53' E 004°16'0 0.0
2015-Mar-25 13:20N 51°53' E 004°16'0 0.0
2015-Mar-25 11:26N 51°53' E 004°16'0 0.0
2015-Mar-25 10:08N 51°53' E 004°16'0 0.0
2015-Mar-25 09:33N 51°53' E 004°16'1 0.9
2015-Mar-25 08:33N 51°54' E 004°16'9 8.6
2015-Mar-25 07:34N 51°59' E 004°04'10 9.3
2015-Mar-25 06:31N 51°60' E 003°49'14 7.0
2015-Mar-25 04:31N 51°55' E 003°27'45 4.8
2015-Mar-24 19:07N 51°35' E 002°23'4 6.5
2015-Mar-24 18:33N 51°32' E 002°19'7 7.3
2015-Mar-24 17:32N 51°27' E 002°11'7 7.0
2015-Mar-24 16:32N 51°20' E 002°08'11 7.8
2015-Mar-24 15:09N 51°11' E 001°57'5 8.7
2015-Mar-24 14:32N 51°08' E 001°50'8 8.0
2015-Mar-24 13:33N 51°02' E 001°42'339 7.7
2015-Mar-22 17:33N 48°17' W 005°55'28 9.2
2015-Mar-22 14:33N 47°50' W 006°04'  
Track history (hours):
 
Tides and Currents Weather Stations Pressure Air Temp Water Temp Dewpoint Dewpoint Depression Visibility Wind Speed Wind Dir Waves Ship Positions

Nestor

Last reported at 2015-Apr-01 03:12 UTC. Time now 2015-Apr-01 04:34 UTC.
Position N 50°35' E 000°16'.

Length 88 m; draft 3.6 m.

Type: Cargo ship. MMSI: 305620000.

Date/timePositionNaut miles runAvg speedWind from/ knotsBaromVisibWave heightAir tempDewpointWater temp
2015-Apr-01 03:12N 50°35' E 000°16'5 7.6
2015-Apr-01 02:33N 50°37' E 000°23'8 7.7
2015-Apr-01 01:33N 50°39' E 000°35'8 7.8
2015-Apr-01 00:34N 50°44' E 000°45'22 7.3
2015-Mar-31 21:30N 50°57' E 001°13'6 6.2
2015-Mar-31 20:32N 51°01' E 001°20'7 7.0
2015-Mar-31 19:33N 51°05' E 001°29'9 8.9
2015-Mar-31 18:33N 51°11' E 001°40'10 9.6
2015-Mar-31 17:33N 51°18' E 001°50'9 8.9
2015-Mar-31 16:34N 51°25' E 001°58'8 7.9
2015-Mar-31 15:32N 51°32' E 002°06'6 6.3
2015-Mar-31 14:34N 51°37' E 002°12'5 5.0
2015-Mar-31 13:33N 51°41' E 002°17'57 3.3
2015-Mar-30 20:33N 52°04' E 003°41'7 6.8
2015-Mar-30 19:33N 52°03' E 003°52'8 7.6
2015-Mar-30 18:33N 51°59' E 004°03'1110.8
2015-Mar-30 17:33N 51°54' E 004°18'2 1.9
2015-Mar-30 16:25N 51°54' E 004°21'0 0.0
2015-Mar-30 15:22N 51°54' E 004°21'0 0.0
2015-Mar-30 14:16N 51°54' E 004°21'0 0.0
2015-Mar-30 13:28N 51°54' E 004°21'0 0.0
2015-Mar-30 12:25N 51°54' E 004°21'0 0.0
2015-Mar-30 11:31N 51°54' E 004°21'0 0.0
2015-Mar-30 10:25N 51°54' E 004°21'0 0.0
2015-Mar-30 09:31N 51°54' E 004°21'0 0.0
2015-Mar-30 08:31N 51°54' E 004°21'0 0.0
2015-Mar-30 07:31N 51°54' E 004°21'0 0.0
2015-Mar-30 06:16N 51°54' E 004°21'0 0.0
2015-Mar-30 05:25N 51°54' E 004°21'0 0.0
2015-Mar-30 04:07N 51°54' E 004°21'0 0.0
2015-Mar-30 03:19N 51°54' E 004°21'0 0.0
2015-Mar-30 02:31N 51°54' E 004°21'0 0.0
2015-Mar-30 01:28N 51°54' E 004°21'0 0.0
2015-Mar-30 00:28N 51°54' E 004°21'0 0.0
2015-Mar-29 23:31N 51°54' E 004°21'0 0.0
2015-Mar-29 22:31N 51°54' E 004°21'0 0.0
2015-Mar-29 21:25N 51°54' E 004°21'0 0.0
2015-Mar-29 20:31N 51°54' E 004°21'0 0.0
2015-Mar-29 19:31N 51°54' E 004°21'0 0.0
2015-Mar-29 18:16N 51°54' E 004°21'0 0.0
2015-Mar-29 17:19N 51°54' E 004°21'0 0.1
2015-Mar-29 16:32N 51°54' E 004°21'1 1.0
2015-Mar-29 15:33N 51°54' E 004°23'3 3.2
2015-Mar-29 14:31N 51°54' E 004°28'0 0.0
2015-Mar-29 13:31N 51°54' E 004°28'0 0.0
2015-Mar-29 12:31N 51°54' E 004°28'0 0.0
2015-Mar-29 11:31N 51°54' E 004°28'0 0.0
2015-Mar-29 10:31N 51°54' E 004°28'0 0.0
2015-Mar-29 09:31N 51°54' E 004°28'0 0.0
2015-Mar-29 08:31N 51°54' E 004°28'0 0.0
2015-Mar-29 07:31N 51°54' E 004°28'0 0.0
2015-Mar-29 06:31N 51°54' E 004°28'0 0.0
2015-Mar-29 05:31N 51°54' E 004°28'0 0.0
2015-Mar-29 04:31N 51°54' E 004°28'0 0.0
2015-Mar-29 03:31N 51°54' E 004°28'0 0.0
2015-Mar-29 02:31N 51°54' E 004°28'0 0.0
2015-Mar-29 01:31N 51°54' E 004°28'0 0.0
2015-Mar-29 00:31N 51°54' E 004°28'0 0.0
2015-Mar-28 23:31N 51°54' E 004°28'0 0.0
2015-Mar-28 22:31N 51°54' E 004°28'0 0.0
2015-Mar-28 21:31N 51°54' E 004°28'0 0.0
2015-Mar-28 20:31N 51°54' E 004°28'0 0.0
2015-Mar-28 19:31N 51°54' E 004°28'0 0.0
2015-Mar-28 18:31N 51°54' E 004°28'0 0.0
2015-Mar-28 17:31N 51°54' E 004°28'0 0.0
2015-Mar-28 16:31N 51°54' E 004°28'0 0.0
2015-Mar-28 15:31N 51°54' E 004°28'0 0.0
2015-Mar-28 14:31N 51°54' E 004°28'0 0.0
2015-Mar-28 13:31N 51°54' E 004°28'0 0.0
2015-Mar-28 12:31N 51°54' E 004°28'0 0.0
2015-Mar-28 11:31N 51°54' E 004°28'0 0.0
2015-Mar-28 10:31N 51°54' E 004°28'0 0.0
2015-Mar-28 09:31N 51°54' E 004°28'0 0.0
2015-Mar-28 08:31N 51°54' E 004°28'0 0.0
2015-Mar-28 07:31N 51°54' E 004°28'0 0.0
2015-Mar-28 06:31N 51°54' E 004°28'0 0.0
2015-Mar-28 05:31N 51°54' E 004°28'0 0.0
2015-Mar-28 04:28N 51°54' E 004°28'0 0.0
2015-Mar-28 03:31N 51°54' E 004°28'0 0.0
2015-Mar-28 02:31N 51°54' E 004°28'0 0.0
2015-Mar-28 01:31N 51°54' E 004°28'0 0.0
2015-Mar-28 00:31N 51°54' E 004°28'0 0.0
2015-Mar-27 23:31N 51°54' E 004°28'0 0.0
2015-Mar-27 22:31N 51°54' E 004°28'0 0.0
2015-Mar-27 21:31N 51°54' E 004°28'0 0.0
2015-Mar-27 20:31N 51°54' E 004°28'0 0.0
2015-Mar-27 19:31N 51°54' E 004°28'0 0.0
2015-Mar-27 18:31N 51°54' E 004°28'0 0.0
2015-Mar-27 17:31N 51°54' E 004°28'0 0.0
2015-Mar-27 16:31N 51°54' E 004°28'0 0.0
2015-Mar-27 15:31N 51°54' E 004°28'0 0.0
2015-Mar-27 14:31N 51°54' E 004°28'0 0.0
2015-Mar-27 13:31N 51°54' E 004°28'0 0.0
2015-Mar-27 12:31N 51°54' E 004°28'0 0.0
2015-Mar-27 11:31N 51°54' E 004°28'0 0.0
2015-Mar-27 10:28N 51°54' E 004°28'0 0.0
2015-Mar-27 09:31N 51°54' E 004°28'0 0.0
2015-Mar-27 08:31N 51°54' E 004°28'0 0.0
2015-Mar-27 07:31N 51°54' E 004°28'0 0.0
2015-Mar-27 06:31N 51°54' E 004°28'0 0.0
2015-Mar-27 05:28N 51°54' E 004°28'0 0.0
2015-Mar-27 04:31N 51°54' E 004°28'0 0.0
2015-Mar-27 03:31N 51°54' E 004°28'0 0.0
2015-Mar-27 02:31N 51°54' E 004°28'0 0.0
2015-Mar-27 01:31N 51°54' E 004°28'0 0.0
2015-Mar-27 00:28N 51°54' E 004°28'0 0.0
2015-Mar-26 23:31N 51°54' E 004°28'0 0.0
2015-Mar-26 22:31N 51°54' E 004°28'0 0.0
2015-Mar-26 21:31N 51°54' E 004°28'0 0.0
2015-Mar-26 20:31N 51°54' E 004°28'0 0.0
2015-Mar-26 19:31N 51°54' E 004°28'0 0.0
2015-Mar-26 18:31N 51°54' E 004°28'0 0.0
2015-Mar-26 17:31N 51°54' E 004°28'0 0.0
2015-Mar-26 16:31N 51°54' E 004°28'0 0.0
2015-Mar-26 15:28N 51°54' E 004°28'0 0.1
2015-Mar-26 14:33N 51°54' E 004°28'7 7.1
2015-Mar-26 13:33N 51°53' E 004°17'0 0.4
2015-Mar-26 12:23N 51°53' E 004°16'0 0.0
2015-Mar-26 11:20N 51°53' E 004°16'0 0.0
2015-Mar-26 10:05N 51°53' E 004°16'0 0.0
2015-Mar-26 09:26N 51°53' E 004°16'0 0.0
2015-Mar-26 08:08N 51°53' E 004°16'0 0.0
2015-Mar-26 07:32N 51°53' E 004°16'0 0.0
2015-Mar-26 06:32N 51°53' E 004°16'0 0.0
2015-Mar-26 05:20N 51°53' E 004°16'0 0.0
2015-Mar-26 04:29N 51°53' E 004°16'0 0.0
2015-Mar-26 03:29N 51°53' E 004°16'0 0.0
2015-Mar-26 02:23N 51°53' E 004°16'0 0.0
2015-Mar-26 01:32N 51°53' E 004°16'0 0.0
2015-Mar-26 00:26N 51°53' E 004°16'0 0.0
2015-Mar-25 22:32N 51°53' E 004°16'0 0.0
2015-Mar-25 21:26N 51°53' E 004°16'0 0.0
2015-Mar-25 20:20N 51°53' E 004°16'0 0.0
2015-Mar-25 19:32N 51°53' E 004°16'0 0.0
2015-Mar-25 18:32N 51°53' E 004°16'0 0.0
2015-Mar-25 17:23N 51°53' E 004°16'0 0.0
2015-Mar-25 15:29N 51°53' E 004°16'0 0.0
2015-Mar-25 14:08N 51°53' E 004°16'0 0.0
2015-Mar-25 13:20N 51°53' E 004°16'0 0.0
2015-Mar-25 11:26N 51°53' E 004°16'0 0.0
2015-Mar-25 10:08N 51°53' E 004°16'0 0.0
2015-Mar-25 09:33N 51°53' E 004°16'1 0.9
2015-Mar-25 08:33N 51°54' E 004°16'9 8.6
2015-Mar-25 07:34N 51°59' E 004°04'10 9.3
2015-Mar-25 06:31N 51°60' E 003°49'14 7.0
2015-Mar-25 04:31N 51°55' E 003°27'45 4.8
2015-Mar-24 19:07N 51°35' E 002°23'4 6.5
2015-Mar-24 18:33N 51°32' E 002°19'7 7.3
2015-Mar-24 17:32N 51°27' E 002°11'7 7.0
2015-Mar-24 16:32N 51°20' E 002°08'11 7.8
2015-Mar-24 15:09N 51°11' E 001°57'5 8.7
2015-Mar-24 14:32N 51°08' E 001°50'8 8.0
2015-Mar-24 13:33N 51°02' E 001°42'339 7.7
2015-Mar-22 17:33N 48°17' W 005°55'28 9.2
2015-Mar-22 14:33N 47°50' W 006°04'  

Dump ship's entire track history